createdAt,value
2022-07-27T00:01:50.994Z,99.90
2022-07-27T00:04:20.678Z,99.90
2022-07-27T00:06:48.172Z,99.90
2022-07-27T00:09:15.378Z,99.90
2022-07-27T00:11:42.203Z,99.90
2022-07-27T00:14:09.094Z,99.90
2022-07-27T00:16:35.919Z,99.90
2022-07-27T00:19:02.870Z,99.90
2022-07-27T00:21:29.714Z,99.90
2022-07-27T00:23:56.476Z,99.90
2022-07-27T00:26:23.360Z,99.90
2022-07-27T00:28:50.197Z,99.90
2022-07-27T00:31:17.139Z,99.90
2022-07-27T00:33:43.900Z,99.90
2022-07-27T00:36:10.842Z,99.90
2022-07-27T00:38:37.807Z,99.90
2022-07-27T00:41:04.904Z,99.90
2022-07-27T00:43:31.596Z,99.90
2022-07-27T00:45:58.194Z,99.90
2022-07-27T00:48:24.809Z,99.90
2022-07-27T00:50:55.365Z,99.90
2022-07-27T00:53:22.067Z,99.90
2022-07-27T00:55:48.836Z,99.90
2022-07-27T00:58:17.170Z,99.90
2022-07-27T01:00:44.362Z,99.90
2022-07-27T01:03:11.110Z,99.90
2022-07-27T01:05:43.271Z,99.90
2022-07-27T01:08:12.606Z,99.90
2022-07-27T01:10:40.817Z,99.90
2022-07-27T01:13:12.693Z,99.90
2022-07-27T01:15:40.557Z,99.90
2022-07-27T01:18:26.926Z,99.90
2022-07-27T01:20:54.238Z,99.90
2022-07-27T01:23:21.084Z,99.90
2022-07-27T01:25:48.391Z,99.90
2022-07-27T01:28:15.053Z,99.90
2022-07-27T01:30:41.897Z,99.90
2022-07-27T01:33:09.760Z,99.90
2022-07-27T01:35:38.718Z,99.90
2022-07-27T01:38:07.133Z,99.90
2022-07-27T01:40:36.744Z,99.90
2022-07-27T01:43:05.160Z,99.90
2022-07-27T01:45:32.120Z,99.90
2022-07-27T01:47:58.901Z,99.90
2022-07-27T01:50:25.523Z,99.90
2022-07-27T01:52:52.154Z,99.90
2022-07-27T01:55:18.908Z,99.90
2022-07-27T01:57:45.591Z,99.90
2022-07-27T02:00:13.490Z,99.90
2022-07-27T02:02:40.766Z,99.90
2022-07-27T02:05:11.731Z,99.90
2022-07-27T02:07:40.198Z,99.90
2022-07-27T02:10:07.953Z,99.90
2022-07-27T02:12:37.492Z,99.90
2022-07-27T02:15:14.772Z,99.90
2022-07-27T02:17:45.535Z,99.90
2022-07-27T02:20:14.729Z,99.90
2022-07-27T02:22:42.352Z,99.90
2022-07-27T02:25:10.400Z,99.90
2022-07-27T02:27:37.059Z,99.90
2022-07-27T02:30:05.352Z,99.90
2022-07-27T02:32:32.177Z,99.90
2022-07-27T02:34:58.966Z,99.90
2022-07-27T02:37:25.697Z,99.90
2022-07-27T02:39:53.074Z,99.90
2022-07-27T02:42:20.171Z,99.90
2022-07-27T02:44:46.817Z,99.90
2022-07-27T02:47:13.453Z,99.90
2022-07-27T02:49:40.079Z,99.90
2022-07-27T02:52:06.798Z,99.90
2022-07-27T02:54:33.757Z,99.90
2022-07-27T02:57:04.960Z,99.90
2022-07-27T02:59:31.989Z,99.90
2022-07-27T03:01:58.753Z,99.90
2022-07-27T03:04:25.777Z,99.90
2022-07-27T03:06:52.878Z,99.90
2022-07-27T03:09:19.585Z,99.90
2022-07-27T03:11:59.513Z,99.90
2022-07-27T03:14:26.207Z,99.90
2022-07-27T03:16:52.877Z,99.90
2022-07-27T03:19:20.153Z,99.90
2022-07-27T03:21:47.164Z,99.90
2022-07-27T03:24:13.849Z,99.90
2022-07-27T03:26:40.487Z,99.90
2022-07-27T03:29:07.228Z,99.90
2022-07-27T03:31:33.963Z,99.90
2022-07-27T03:34:02.034Z,99.90
2022-07-27T03:36:29.098Z,99.90
2022-07-27T03:38:57.394Z,99.90
2022-07-27T03:41:24.055Z,99.90
2022-07-27T03:43:50.706Z,99.90
2022-07-27T03:46:17.316Z,99.90
2022-07-27T03:48:44.044Z,99.90
2022-07-27T03:51:10.736Z,99.90
2022-07-27T03:53:37.347Z,99.90
2022-07-27T03:59:10.259Z,99.90
2022-07-27T04:01:37.174Z,99.90
2022-07-27T04:04:03.887Z,99.90
2022-07-27T04:06:30.730Z,99.90
2022-07-27T04:09:08.261Z,99.90
2022-07-27T04:11:43.615Z,99.90
2022-07-27T04:14:17.568Z,99.90
2022-07-27T04:16:44.269Z,99.90
2022-07-27T04:19:11.377Z,99.90
2022-07-27T04:21:38.762Z,99.90
2022-07-27T04:24:06.982Z,99.90
2022-07-27T04:26:33.623Z,99.90
2022-07-27T04:29:00.374Z,99.90
2022-07-27T04:31:27.025Z,99.90
2022-07-27T04:33:53.697Z,99.90
2022-07-27T04:36:20.364Z,99.90
2022-07-27T04:38:47.168Z,99.90
2022-07-27T04:41:13.893Z,99.90
2022-07-27T04:43:41.383Z,99.90
2022-07-27T04:46:13.133Z,99.90
2022-07-27T04:48:42.186Z,99.90
2022-07-27T04:51:17.213Z,99.90
2022-07-27T04:53:57.638Z,99.90
2022-07-27T04:56:26.946Z,99.90
2022-07-27T04:58:54.542Z,99.90
2022-07-27T05:01:22.904Z,99.90
2022-07-27T05:03:49.825Z,99.90
2022-07-27T05:06:17.370Z,99.90
2022-07-27T05:08:44.150Z,99.90
2022-07-27T05:11:10.855Z,99.90
2022-07-27T05:13:40.969Z,99.90
2022-07-27T05:16:11.482Z,99.90
2022-07-27T05:18:39.120Z,99.90
2022-07-27T05:21:06.999Z,99.90
2022-07-27T05:23:33.909Z,99.90
2022-07-27T05:26:03.166Z,99.90
2022-07-27T05:28:29.978Z,99.90
2022-07-27T05:30:56.742Z,99.90
2022-07-27T05:33:23.453Z,99.90
2022-07-27T05:35:50.131Z,99.90
2022-07-27T05:38:17.403Z,99.90
2022-07-27T05:40:45.586Z,99.90
2022-07-27T05:43:12.373Z,99.90
2022-07-27T05:45:39.186Z,99.90
2022-07-27T05:48:06.287Z,99.90
2022-07-27T05:50:32.973Z,99.90
2022-07-27T05:53:00.576Z,99.90
2022-07-27T05:55:27.399Z,99.90
2022-07-27T05:57:54.030Z,99.90
2022-07-27T06:00:20.663Z,99.90
2022-07-27T06:02:47.425Z,99.90
2022-07-27T06:05:17.670Z,99.90
2022-07-27T06:08:03.490Z,99.90
2022-07-27T06:10:33.025Z,99.90
2022-07-27T06:13:01.054Z,99.90
2022-07-27T06:15:27.794Z,99.90
2022-07-27T06:17:55.459Z,99.90
2022-07-27T06:20:23.670Z,99.90
2022-07-27T06:22:52.796Z,99.90
2022-07-27T06:25:20.753Z,99.90
2022-07-27T06:27:48.122Z,99.90
2022-07-27T06:30:17.225Z,99.90
2022-07-27T06:32:44.535Z,99.90
2022-07-27T06:35:12.648Z,99.90
2022-07-27T06:37:43.939Z,99.90
2022-07-27T06:40:14.483Z,99.90
2022-07-27T06:42:41.848Z,99.90
2022-07-27T06:45:09.429Z,99.90
2022-07-27T06:47:36.752Z,99.90
2022-07-27T06:50:17.981Z,99.90
2022-07-27T06:52:45.016Z,99.90
2022-07-27T06:55:11.976Z,99.90
2022-07-27T06:57:38.689Z,99.90
2022-07-27T07:00:06.788Z,99.90
2022-07-27T07:02:33.625Z,99.90
2022-07-27T07:05:00.313Z,99.90
2022-07-27T07:07:27.170Z,99.90
2022-07-27T07:09:53.828Z,99.90
2022-07-27T07:12:20.569Z,99.90
2022-07-27T07:14:47.333Z,99.90
2022-07-27T07:17:13.990Z,99.90
2022-07-27T07:19:40.685Z,99.90
2022-07-27T07:22:07.447Z,99.90
2022-07-27T07:24:36.627Z,99.90
2022-07-27T07:27:03.299Z,99.90
2022-07-27T07:29:31.051Z,99.90
2022-07-27T07:31:57.739Z,99.90
2022-07-27T07:34:24.518Z,99.90
2022-07-27T07:36:51.220Z,99.90
2022-07-27T07:39:17.864Z,99.90
2022-07-27T07:41:44.516Z,99.90
2022-07-27T07:44:11.244Z,99.90
2022-07-27T07:46:38.151Z,99.90
2022-07-27T07:49:05.343Z,99.90
2022-07-27T07:51:32.111Z,99.90
2022-07-27T07:53:58.960Z,99.90
2022-07-27T07:56:28.213Z,99.90
2022-07-27T07:58:54.976Z,99.90
2022-07-27T08:01:21.756Z,99.90
2022-07-27T08:03:51.141Z,99.90
2022-07-27T08:06:19.040Z,99.90
2022-07-27T08:08:46.166Z,99.90
2022-07-27T08:11:12.910Z,99.90
2022-07-27T08:13:39.767Z,99.90
2022-07-27T08:16:06.724Z,99.90
2022-07-27T08:18:33.482Z,99.90
2022-07-27T08:21:00.136Z,99.90
2022-07-27T08:23:27.027Z,99.90
2022-07-27T08:25:54.668Z,99.90
2022-07-27T08:28:21.615Z,99.90
2022-07-27T08:30:49.330Z,99.90
2022-07-27T08:33:16.559Z,99.90
2022-07-27T08:35:43.284Z,99.90
2022-07-27T08:38:10.154Z,99.90
2022-07-27T08:40:44.351Z,99.90
2022-07-27T08:43:18.963Z,99.90
2022-07-27T08:46:00.363Z,99.90
2022-07-27T08:48:31.012Z,99.90
2022-07-27T08:50:58.251Z,99.90
2022-07-27T08:53:25.502Z,99.90
2022-07-27T08:55:52.365Z,99.90
2022-07-27T08:58:19.274Z,99.90
2022-07-27T09:00:48.440Z,99.90
2022-07-27T09:03:20.200Z,99.90
2022-07-27T09:05:50.285Z,99.90
2022-07-27T09:08:26.053Z,99.90
2022-07-27T09:10:56.138Z,99.90
2022-07-27T09:13:22.789Z,99.90
2022-07-27T09:18:40.371Z,99.90
2022-07-27T09:21:16.568Z,99.90
2022-07-27T09:23:51.897Z,99.90
2022-07-27T09:26:37.281Z,99.90
2022-07-27T09:29:07.185Z,99.90
2022-07-27T09:31:45.400Z,99.90
2022-07-27T09:34:13.497Z,99.90
2022-07-27T09:36:54.745Z,99.90
2022-07-27T09:39:24.150Z,99.90
2022-07-27T09:41:52.554Z,99.90
2022-07-27T09:44:43.452Z,99.90
2022-07-27T09:47:28.896Z,99.90
2022-07-27T09:50:19.811Z,99.90
2022-07-27T09:52:47.222Z,99.90
2022-07-27T09:55:14.232Z,99.90
2022-07-27T09:57:56.824Z,99.90
2022-07-27T10:00:24.630Z,99.90
2022-07-27T10:02:52.691Z,99.90
2022-07-27T10:05:24.525Z,99.90
2022-07-27T10:07:53.405Z,99.90
2022-07-27T10:10:21.550Z,99.90
2022-07-27T10:12:54.113Z,99.90
2022-07-27T10:15:21.863Z,99.90
2022-07-27T10:17:55.736Z,99.90
2022-07-27T10:20:22.663Z,99.90
2022-07-27T10:22:55.120Z,99.90
2022-07-27T10:25:24.331Z,99.90
2022-07-27T10:28:13.131Z,99.90
2022-07-27T10:30:40.078Z,99.90
2022-07-27T10:33:14.467Z,99.90
2022-07-27T10:35:41.804Z,99.90
2022-07-27T10:38:15.267Z,99.90
2022-07-27T10:40:43.585Z,99.90
2022-07-27T10:43:28.409Z,99.90
2022-07-27T10:46:02.771Z,99.90
2022-07-27T10:48:47.743Z,99.90
2022-07-27T10:51:16.340Z,99.90
2022-07-27T10:54:10.912Z,99.90
2022-07-27T10:56:48.238Z,99.90
2022-07-27T10:59:15.365Z,99.90
2022-07-27T11:01:58.296Z,99.90
2022-07-27T11:04:25.413Z,99.90
2022-07-27T11:07:23.624Z,99.90
2022-07-27T11:12:31.363Z,99.90
2022-07-27T11:14:58.787Z,99.90
2022-07-27T11:20:14.204Z,99.90
2022-07-27T11:25:28.614Z,99.90
2022-07-27T11:27:55.391Z,99.90
2022-07-27T11:30:28.265Z,99.90
2022-07-27T11:32:56.079Z,99.90
2022-07-27T11:35:24.718Z,99.90
2022-07-27T11:38:03.519Z,99.90
2022-07-27T11:41:12.708Z,99.90
2022-07-27T11:43:33.775Z,99.90
2022-07-27T11:46:12.806Z,99.90
2022-07-27T11:49:06.594Z,99.90
2022-07-27T11:51:48.657Z,99.90
2022-07-27T11:54:29.698Z,99.90
2022-07-27T11:57:03.582Z,99.90
2022-07-27T11:59:44.474Z,99.90
2022-07-27T12:02:18.242Z,99.90
2022-07-27T12:04:47.647Z,99.90
2022-07-27T12:07:33.351Z,99.90
2022-07-27T12:10:02.551Z,99.90
2022-07-27T12:12:37.017Z,99.90
2022-07-27T12:18:05.789Z,99.90
2022-07-27T12:20:34.840Z,99.90
2022-07-27T12:23:07.189Z,99.90
2022-07-27T12:25:35.104Z,99.90
2022-07-27T12:28:07.783Z,99.90
2022-07-27T12:30:51.930Z,99.90
2022-07-27T12:33:37.881Z,99.90
2022-07-27T12:36:07.847Z,99.90
2022-07-27T12:38:45.705Z,99.90
2022-07-27T12:41:38.029Z,99.90
2022-07-27T12:44:12.583Z,99.90
2022-07-27T12:46:52.780Z,99.90
2022-07-27T12:49:24.671Z,99.90
2022-07-27T12:51:51.961Z,99.90
2022-07-27T12:54:19.609Z,99.90
2022-07-27T12:56:47.591Z,99.90
2022-07-27T12:59:15.174Z,99.90
2022-07-27T13:01:42.187Z,99.90
2022-07-27T13:04:08.866Z,99.90
2022-07-27T13:06:35.507Z,99.90
2022-07-27T13:09:02.129Z,99.90
2022-07-27T13:11:28.854Z,99.90
2022-07-27T13:13:55.527Z,99.90
2022-07-27T13:16:22.276Z,99.90
2022-07-27T13:18:49.130Z,99.90
2022-07-27T13:21:15.841Z,99.90
2022-07-27T13:23:42.745Z,99.90
2022-07-27T13:26:09.370Z,99.90
2022-07-27T13:28:36.496Z,99.90
2022-07-27T13:31:03.190Z,99.90
2022-07-27T13:33:29.924Z,99.90
2022-07-27T13:36:00.861Z,99.90
2022-07-27T13:38:28.631Z,99.90
2022-07-27T13:40:55.591Z,99.90
2022-07-27T13:43:22.331Z,99.90
2022-07-27T13:45:49.397Z,99.90
2022-07-27T13:48:16.619Z,99.90
2022-07-27T13:50:43.379Z,99.90
2022-07-27T13:53:10.108Z,99.90
2022-07-27T13:55:42.517Z,99.90
2022-07-27T13:58:09.254Z,99.90
2022-07-27T14:00:36.399Z,99.90
2022-07-27T14:03:03.352Z,99.90
2022-07-27T14:05:30.509Z,99.90
2022-07-27T14:07:59.061Z,99.90
2022-07-27T14:10:32.422Z,99.90
2022-07-27T14:13:07.413Z,99.90
2022-07-27T14:15:50.601Z,99.90
2022-07-27T14:18:20.636Z,99.90
2022-07-27T14:20:47.300Z,99.90
2022-07-27T14:23:14.027Z,99.90
2022-07-27T14:25:40.660Z,99.90
2022-07-27T14:28:07.307Z,99.90
2022-07-27T14:30:34.444Z,99.90
2022-07-27T14:33:02.901Z,99.90
2022-07-27T14:35:30.037Z,99.90
2022-07-27T14:37:58.425Z,99.90
2022-07-27T14:40:25.658Z,99.90
2022-07-27T14:42:52.487Z,99.90
2022-07-27T14:45:19.866Z,99.90
2022-07-27T14:47:47.244Z,99.90
2022-07-27T14:50:14.951Z,99.90
2022-07-27T14:52:41.789Z,99.90
2022-07-27T14:55:09.464Z,99.90
2022-07-27T14:57:36.938Z,99.90
2022-07-27T15:00:10.405Z,99.90
2022-07-27T15:02:38.086Z,99.90
2022-07-27T15:05:05.564Z,99.90
2022-07-27T15:07:32.860Z,99.90
2022-07-27T15:09:59.689Z,99.90
2022-07-27T15:12:27.039Z,99.90
2022-07-27T15:14:54.166Z,99.90
2022-07-27T15:17:21.162Z,99.90
2022-07-27T15:19:48.152Z,99.90
2022-07-27T15:22:14.989Z,99.90
2022-07-27T15:24:41.773Z,99.90
2022-07-27T15:27:08.742Z,99.90
2022-07-27T15:29:36.485Z,99.90
2022-07-27T15:32:04.051Z,99.90
2022-07-27T15:34:30.704Z,99.90
2022-07-27T15:36:57.977Z,99.90
2022-07-27T15:39:24.949Z,99.90
2022-07-27T15:41:51.590Z,99.90
2022-07-27T15:44:22.030Z,99.90
2022-07-27T15:46:48.893Z,99.90
2022-07-27T15:49:16.259Z,99.90
2022-07-27T15:51:43.168Z,99.90
2022-07-27T15:54:09.854Z,99.90
2022-07-27T15:56:36.477Z,99.90
2022-07-27T15:59:03.306Z,99.90
2022-07-27T16:01:35.517Z,99.90
2022-07-27T16:04:03.785Z,99.90
2022-07-27T16:06:34.091Z,99.20
2022-07-27T16:09:05.000Z,98.50
2022-07-27T16:11:32.015Z,98.80
2022-07-27T16:13:58.708Z,98.40
2022-07-27T16:16:25.637Z,97.60
2022-07-27T16:18:53.820Z,96.80
2022-07-27T16:21:22.466Z,96.40
2022-07-27T16:23:50.015Z,96.20
2022-07-27T16:26:16.759Z,95.60
2022-07-27T16:28:47.008Z,96.20
2022-07-27T16:31:18.441Z,96.10
2022-07-27T16:33:45.402Z,96.10
2022-07-27T16:36:12.803Z,95.90
2022-07-27T16:38:47.655Z,95.60
2022-07-27T16:41:17.317Z,95.30
2022-07-27T16:43:44.020Z,95.70
2022-07-27T16:46:11.696Z,94.30
2022-07-27T16:48:42.485Z,94.60
2022-07-27T16:51:14.521Z,94.80
2022-07-27T16:53:43.519Z,95.50
2022-07-27T16:56:11.345Z,95.70
2022-07-27T16:58:38.625Z,95.80
2022-07-27T17:01:05.633Z,94.40
2022-07-27T17:03:32.361Z,94.10
2022-07-27T17:06:03.620Z,91.90
2022-07-27T17:08:32.454Z,92.40
2022-07-27T17:11:00.453Z,92.00
2022-07-27T17:13:33.560Z,91.90
2022-07-27T17:16:04.945Z,92.50
2022-07-27T17:18:39.007Z,92.30
2022-07-27T17:21:07.460Z,91.80
2022-07-27T17:23:38.350Z,92.00
2022-07-27T17:26:07.257Z,91.90
2022-07-27T17:28:36.816Z,91.20
2022-07-27T17:31:04.646Z,90.40
2022-07-27T17:33:31.802Z,90.00
2022-07-27T17:35:59.019Z,89.50
2022-07-27T17:38:27.588Z,90.60
2022-07-27T17:40:54.408Z,90.50
2022-07-27T17:43:21.069Z,91.40
2022-07-27T17:45:48.415Z,91.90
2022-07-27T17:48:15.083Z,91.60
2022-07-27T17:50:41.774Z,91.50
2022-07-27T17:53:08.421Z,91.50
2022-07-27T17:55:36.577Z,90.80
2022-07-27T17:58:03.399Z,90.70
2022-07-27T18:00:30.740Z,90.10
2022-07-27T18:02:57.514Z,88.80
2022-07-27T18:05:24.333Z,89.30
2022-07-27T18:07:53.217Z,89.50
2022-07-27T18:10:20.577Z,90.00
2022-07-27T18:12:47.255Z,90.50
2022-07-27T18:15:32.743Z,90.80
2022-07-27T18:17:59.576Z,90.90
2022-07-27T18:20:26.774Z,90.70
2022-07-27T18:22:53.646Z,90.60
2022-07-27T18:25:22.058Z,90.40
2022-07-27T18:27:49.975Z,90.50
2022-07-27T18:30:17.629Z,90.50
2022-07-27T18:32:45.384Z,90.60
2022-07-27T18:35:12.700Z,90.60
2022-07-27T18:37:39.655Z,90.60
2022-07-27T18:40:07.152Z,90.90
2022-07-27T18:42:33.948Z,90.90
2022-07-27T18:45:00.624Z,91.40
2022-07-27T18:47:27.293Z,91.60
2022-07-27T18:49:54.005Z,92.00
2022-07-27T18:52:20.708Z,92.20
2022-07-27T18:54:47.357Z,92.50
2022-07-27T18:57:14.180Z,92.80
2022-07-27T18:59:41.392Z,93.10
2022-07-27T19:02:08.495Z,93.30
2022-07-27T19:04:35.661Z,93.50
2022-07-27T19:07:03.498Z,93.60
2022-07-27T19:09:33.500Z,93.80
2022-07-27T19:12:07.475Z,93.90
2022-07-27T19:14:37.131Z,94.00
2022-07-27T19:17:04.133Z,94.10
2022-07-27T19:19:31.318Z,94.20
2022-07-27T19:21:58.339Z,94.20
2022-07-27T19:24:25.281Z,94.40
2022-07-27T19:26:52.053Z,94.40
2022-07-27T19:29:21.139Z,94.50
2022-07-27T19:31:48.040Z,94.60
2022-07-27T19:34:14.764Z,94.70
2022-07-27T19:36:41.566Z,94.70
2022-07-27T19:39:08.422Z,94.90
2022-07-27T19:41:35.743Z,94.90
2022-07-27T19:44:03.486Z,94.90
2022-07-27T19:46:32.195Z,95.00
2022-07-27T19:48:59.074Z,95.00
2022-07-27T19:51:26.052Z,95.10
2022-07-27T19:53:53.178Z,95.20
2022-07-27T19:56:19.939Z,95.30
2022-07-27T19:58:46.682Z,95.40
2022-07-27T20:01:13.727Z,95.30
2022-07-27T20:03:48.659Z,95.50
2022-07-27T20:06:20.798Z,95.40
2022-07-27T20:08:48.103Z,95.50
2022-07-27T20:11:17.270Z,95.60
2022-07-27T20:13:44.048Z,95.60
2022-07-27T20:16:11.232Z,95.70
2022-07-27T20:18:38.032Z,95.70
2022-07-27T20:21:04.859Z,95.90
2022-07-27T20:23:49.736Z,96.00
2022-07-27T20:26:16.549Z,96.10
2022-07-27T20:28:43.418Z,96.20
2022-07-27T20:31:11.859Z,96.20
2022-07-27T20:33:38.636Z,96.30
2022-07-27T20:36:05.785Z,96.30
2022-07-27T20:38:32.491Z,96.30
2022-07-27T20:40:59.355Z,96.30
2022-07-27T20:43:29.724Z,96.30
2022-07-27T20:45:57.837Z,96.40
2022-07-27T20:48:24.604Z,96.40
2022-07-27T20:50:51.541Z,96.50
2022-07-27T20:53:20.132Z,96.40
2022-07-27T20:55:47.649Z,96.40
2022-07-27T20:58:14.394Z,96.40
2022-07-27T21:00:41.138Z,96.50
2022-07-27T21:03:08.549Z,96.60
2022-07-27T21:05:35.371Z,96.80
2022-07-27T21:08:02.371Z,96.90
2022-07-27T21:10:29.058Z,97.00
2022-07-27T21:12:55.807Z,97.10
2022-07-27T21:15:22.580Z,97.20
2022-07-27T21:18:00.776Z,97.20
2022-07-27T21:20:27.556Z,97.30
2022-07-27T21:23:12.992Z,97.50
2022-07-27T21:25:43.947Z,97.50
2022-07-27T21:28:11.169Z,97.50
2022-07-27T21:30:43.728Z,97.50
2022-07-27T21:33:10.433Z,97.50
2022-07-27T21:35:37.224Z,97.60
2022-07-27T21:38:04.658Z,97.60
2022-07-27T21:40:31.877Z,97.70
2022-07-27T21:42:58.697Z,97.80
2022-07-27T21:45:25.454Z,97.80
2022-07-27T21:47:52.125Z,97.80
2022-07-27T21:50:18.844Z,97.90
2022-07-27T21:52:45.552Z,97.90
2022-07-27T21:55:12.220Z,97.90
2022-07-27T21:57:38.917Z,97.90
2022-07-27T22:00:06.566Z,97.80
2022-07-27T22:02:33.295Z,97.80
2022-07-27T22:05:00.063Z,97.80
2022-07-27T22:07:26.901Z,97.90
2022-07-27T22:09:53.636Z,98.00
2022-07-27T22:12:20.519Z,98.00
2022-07-27T22:14:47.179Z,98.00
2022-07-27T22:17:13.865Z,98.00
2022-07-27T22:19:40.472Z,98.00
2022-07-27T22:22:07.111Z,98.00
2022-07-27T22:24:33.800Z,98.10
2022-07-27T22:27:00.477Z,98.20
2022-07-27T22:29:27.205Z,98.30
2022-07-27T22:31:53.950Z,98.30
2022-07-27T22:34:20.677Z,98.40
2022-07-27T22:36:47.316Z,98.50
2022-07-27T22:39:13.978Z,98.60
2022-07-27T22:41:41.367Z,98.60
2022-07-27T22:44:08.048Z,98.70
2022-07-27T22:46:34.817Z,98.70
2022-07-27T22:49:01.680Z,98.70
2022-07-27T22:51:50.269Z,98.80
2022-07-27T22:54:16.035Z,98.80
2022-07-27T22:56:42.927Z,98.90
2022-07-27T22:59:09.557Z,99.00
2022-07-27T23:01:46.719Z,99.20
2022-07-27T23:04:15.772Z,99.20
2022-07-27T23:06:42.935Z,99.10
2022-07-27T23:09:09.580Z,99.10
2022-07-27T23:11:36.250Z,99.10
2022-07-27T23:14:03.155Z,99.20
2022-07-27T23:16:29.893Z,99.20
2022-07-27T23:18:56.683Z,99.20
2022-07-27T23:21:23.305Z,99.20
2022-07-27T23:23:53.867Z,99.20
2022-07-27T23:26:21.066Z,99.20
2022-07-27T23:28:52.443Z,99.20
2022-07-27T23:31:19.117Z,99.10
2022-07-27T23:33:45.960Z,99.20
2022-07-27T23:36:12.775Z,99.40
2022-07-27T23:38:39.417Z,99.50
2022-07-27T23:41:06.076Z,99.90
2022-07-27T23:43:32.960Z,99.50
2022-07-27T23:45:59.623Z,99.60
2022-07-27T23:48:26.233Z,99.60
2022-07-27T23:50:55.610Z,99.60
2022-07-27T23:53:22.624Z,99.70
2022-07-27T23:55:49.380Z,99.80
2022-07-27T23:58:15.998Z,99.80
